Time;durP1;ratioP1;P1;durP2;ratioP2;P2;SDS_P1;SDS_P2;PMS_P1;PMS_P2;Temp;Humidity;BMP_temperature;BMP_pressure;BME280_temperature;BME280_humidity;BME280_pressure;Samples;Min_cycle;Max_cycle;Signal;HPM_P1;HPM_P2
2023/08/14 00:02:40;;;;;;;3.10;2.70;;;;;;;19.27;100.00;100418.38;6215708;28;20041;-74
2023/08/14 00:05:41;;;;;;;4.30;2.73;;;;;;;19.17;100.00;100407.81;6220996;28;20107;-73
2023/08/14 00:08:42;;;;;;;3.13;2.50;;;;;;;19.16;100.00;100413.25;6222123;28;20060;-73
2023/08/14 00:11:42;;;;;;;4.27;2.67;;;;;;;19.15;100.00;100408.91;6222550;28;20470;-73
2023/08/14 00:14:45;;;;;;;4.03;2.70;;;;;;;19.06;100.00;100403.47;6309833;28;20052;-73
2023/08/14 00:17:46;;;;;;;3.83;2.60;;;;;;;19.03;100.00;100403.78;6329478;28;20054;-73
2023/08/14 00:20:47;;;;;;;4.43;3.00;;;;;;;19.02;100.00;100409.19;6221988;28;20057;-73
2023/08/14 00:23:50;;;;;;;4.00;2.53;;;;;;;19.06;100.00;100408.78;6233153;28;20084;-74
2023/08/14 00:26:51;;;;;;;3.15;2.60;;;;;;;19.01;100.00;100413.66;6310270;28;20051;-73
2023/08/14 00:29:52;;;;;;;3.80;2.70;;;;;;;18.92;100.00;100407.41;6350031;28;20055;-73
2023/08/14 00:32:55;;;;;;;3.20;2.60;;;;;;;18.96;100.00;100404.47;6309433;28;20054;-74
2023/08/14 00:35:59;;;;;;;3.00;2.70;;;;;;;18.96;100.00;100397.34;6210022;28;20061;-73
2023/08/14 00:39:05;;;;;;;4.20;2.75;;;;;;;18.86;100.00;100397.38;6198351;28;20050;-74
2023/08/14 00:42:06;;;;;;;4.73;2.90;;;;;;;18.93;100.00;100408.22;6214744;28;20490;-73
2023/08/14 00:45:08;;;;;;;3.30;2.40;;;;;;;18.89;100.00;100407.66;6274060;28;20467;-73
2023/08/14 00:48:09;;;;;;;3.00;2.35;;;;;;;18.84;100.00;100409.03;6230013;28;20516;-73
2023/08/14 00:51:12;;;;;;;5.00;2.67;;;;;;;18.69;100.00;100413.88;6203550;28;20042;-73
2023/08/14 00:54:13;;;;;;;3.92;2.85;;;;;;;18.60;100.00;100407.63;6218717;28;20081;-74
2023/08/14 00:57:14;;;;;;;5.10;3.10;;;;;;;18.47;100.00;100402.59;6197009;28;20166;-73
2023/08/14 01:00:15;;;;;;;4.75;2.30;;;;;;;18.50;100.00;100410.22;6218105;28;20443;-73
2023/08/14 01:03:19;;;;;;;3.10;2.67;;;;;;;18.56;100.00;100408.03;6226878;28;20137;-74
2023/08/14 01:06:20;;;;;;;3.08;2.70;;;;;;;18.47;100.00;100410.53;6227674;28;20049;-74
2023/08/14 01:09:21;;;;;;;2.83;2.37;;;;;;;18.45;100.00;100414.25;6215372;28;20057;-73
2023/08/14 01:12:38;;;;;;;2.72;2.50;;;;;;;18.46;100.00;100413.28;6198018;28;20425;-73
2023/08/14 01:15:44;;;;;;;2.63;2.40;;;;;;;18.46;100.00;100410.66;6220502;28;20141;-73
2023/08/14 01:18:46;;;;;;;7.22;3.03;;;;;;;18.45;100.00;100412.47;6237903;28;20043;-73
2023/08/14 01:22:07;;;;;;;3.08;2.63;;;;;;;18.42;100.00;100409.25;6274927;28;20463;-70
2023/08/14 01:25:34;;;;;;;5.18;2.92;;;;;;;18.45;100.00;100415.09;6206726;28;20132;-70
2023/08/14 01:28:35;;;;;;;4.32;2.55;;;;;;;18.40;100.00;100411.19;6217958;28;20076;-70
2023/08/14 01:31:35;;;;;;;2.67;2.27;;;;;;;18.36;100.00;100415.06;6237453;28;20397;-70
2023/08/14 01:34:36;;;;;;;2.53;2.33;;;;;;;18.30;100.00;100400.59;6206023;28;20051;-70
2023/08/14 01:37:48;;;;;;;4.63;3.25;;;;;;;18.28;100.00;100416.59;6209373;28;20066;-71
2023/08/14 01:41:25;;;;;;;4.30;2.45;;;;;;;18.20;100.00;100411.16;6209414;28;20096;-70
2023/08/14 01:44:27;;;;;;;3.15;2.63;;;;;;;18.20;100.00;100405.88;6277360;28;20064;-70
2023/08/14 01:47:28;;;;;;;;;;;;;;;18.19;100.00;100420.03;6219034;28;20443;-70
2023/08/14 01:50:32;;;;;;;5.13;2.57;;;;;;;18.19;100.00;100412.09;6241055;28;20386;-70
2023/08/14 01:53:34;;;;;;;3.58;2.47;;;;;;;18.09;100.00;100427.06;6346805;27;20055;-71
2023/08/14 01:56:34;;;;;;;3.58;2.38;;;;;;;18.04;100.00;100426.66;6346532;28;20139;-70
2023/08/14 01:59:43;;;;;;;3.77;2.80;;;;;;;18.02;100.00;100428.59;6345093;28;20043;-70
2023/08/14 02:02:44;;;;;;;2.63;2.40;;;;;;;18.01;100.00;100433.00;6240696;28;20057;-70
2023/08/14 02:05:45;;;;;;;3.43;2.50;;;;;;;17.94;100.00;100431.88;6198385;28;20054;-70
2023/08/14 02:08:46;;;;;;;2.77;2.43;;;;;;;17.80;100.00;100426.91;6192990;28;20042;-70
2023/08/14 02:11:46;;;;;;;3.40;2.67;;;;;;;17.77;100.00;100427.16;6240302;28;20047;-70
2023/08/14 02:14:47;;;;;;;3.70;2.53;;;;;;;17.79;100.00;100428.72;6345188;28;20047;-70
2023/08/14 02:17:48;;;;;;;3.50;3.05;;;;;;;17.82;100.00;100433.72;6344853;28;20139;-70
2023/08/14 02:20:49;;;;;;;4.30;2.83;;;;;;;17.83;100.00;100429.31;6344993;28;20555;-70
2023/08/14 02:23:50;;;;;;;4.53;2.60;;;;;;;17.84;100.00;100431.81;6237254;28;20138;-70
2023/08/14 02:26:53;;;;;;;4.40;2.97;;;;;;;17.87;100.00;100439.50;6218046;28;20275;-70
2023/08/14 02:29:56;;;;;;;3.25;2.80;;;;;;;17.81;100.00;100437.34;6212033;28;20140;-70
2023/08/14 02:32:57;;;;;;;3.78;2.72;;;;;;;17.80;100.00;100440.94;6205269;28;20391;-70
2023/08/14 02:35:58;;;;;;;6.40;2.83;;;;;;;17.81;100.00;100441.78;6302184;28;20052;-70
2023/08/14 02:38:59;;;;;;;5.53;2.65;;;;;;;17.76;100.00;100449.25;6345604;28;20070;-70
2023/08/14 02:42:01;;;;;;;4.05;2.80;;;;;;;17.72;100.00;100446.03;6247884;28;20067;-70
2023/08/14 02:45:05;;;;;;;3.47;2.60;;;;;;;17.70;100.00;100448.78;6212748;28;20050;-70
2023/08/14 02:48:06;;;;;;;3.67;2.42;;;;;;;17.69;100.00;100460.34;6205799;28;20506;-71
2023/08/14 02:51:06;;;;;;;4.75;2.50;;;;;;;17.68;100.00;100448.09;6193383;28;20089;-70
2023/08/14 02:54:09;;;;;;;2.63;2.42;;;;;;;17.76;100.00;100457.19;6271191;28;20054;-70
2023/08/14 02:57:12;;;;;;;3.53;2.45;;;;;;;17.71;100.00;100452.28;6214903;28;20130;-70
2023/08/14 03:00:14;;;;;;;4.00;2.47;;;;;;;17.65;100.00;100453.63;6210311;28;20051;-70
2023/08/14 03:03:15;;;;;;;2.45;2.25;;;;;;;17.62;100.00;100458.34;6206278;28;20060;-70
2023/08/14 03:06:17;;;;;;;5.25;2.88;;;;;;;17.54;100.00;100451.06;6213777;28;20422;-70
2023/08/14 03:09:18;;;;;;;4.55;2.88;;;;;;;17.57;100.00;100447.34;6197945;28;20103;-70
2023/08/14 03:12:18;;;;;;;4.45;2.55;;;;;;;17.52;100.00;100452.97;6313068;28;20050;-71
2023/08/14 03:15:19;;;;;;;4.00;2.70;;;;;;;17.49;100.00;100450.63;6207942;28;20050;-70
2023/08/14 03:18:20;;;;;;;2.95;2.45;;;;;;;17.49;100.00;100462.00;6218284;28;20054;-70
2023/08/14 03:21:23;;;;;;;3.38;2.63;;;;;;;17.49;100.00;100459.38;6270538;28;20044;-70
2023/08/14 03:24:23;;;;;;;3.50;2.38;;;;;;;17.46;100.00;100471.97;6240193;28;20056;-70
2023/08/14 03:27:24;;;;;;;9.60;2.85;;;;;;;17.32;100.00;100465.22;6197095;28;20050;-70
2023/08/14 03:30:25;;;;;;;3.38;2.65;;;;;;;17.46;100.00;100466.69;6204208;28;20046;-70
2023/08/14 03:33:26;;;;;;;2.70;2.47;;;;;;;17.42;100.00;100474.03;6216917;28;20490;-70
2023/08/14 03:36:29;;;;;;;2.95;2.40;;;;;;;17.40;100.00;100469.84;6218000;28;20367;-70
2023/08/14 03:39:30;;;;;;;2.63;2.20;;;;;;;17.37;100.00;100473.56;6218240;28;20118;-70
2023/08/14 03:42:30;;;;;;;3.25;2.78;;;;;;;17.41;100.00;100468.88;6203671;28;20046;-70
2023/08/14 03:45:31;;;;;;;3.60;2.70;;;;;;;17.40;100.00;100472.47;6216471;28;20077;-71
2023/08/14 03:48:32;;;;;;;3.60;2.80;;;;;;;17.43;100.00;100473.06;6207631;28;20054;-70
2023/08/14 03:51:33;;;;;;;3.90;2.75;;;;;;;17.52;100.00;100467.03;6221484;28;20401;-70
2023/08/14 03:54:33;;;;;;;2.90;2.40;;;;;;;17.54;100.00;100466.88;6213935;28;20046;-70
2023/08/14 03:57:34;;;;;;;3.05;2.65;;;;;;;17.60;100.00;100469.00;6203045;28;20050;-70
2023/08/14 04:00:35;;;;;;;3.08;2.72;;;;;;;17.57;100.00;100469.28;6213088;28;20046;-70
2023/08/14 04:03:36;;;;;;;3.35;2.70;;;;;;;17.61;100.00;100472.50;6204027;28;20088;-70
2023/08/14 04:06:39;;;;;;;5.10;2.72;;;;;;;17.63;100.00;100475.84;6216271;28;20041;-70
2023/08/14 04:09:40;;;;;;;3.00;2.55;;;;;;;17.60;100.00;100482.19;6205293;28;20079;-70
2023/08/14 04:12:40;;;;;;;2.42;2.20;;;;;;;17.63;100.00;100481.13;6225775;28;20430;-70
2023/08/14 04:15:42;;;;;;;3.03;2.40;;;;;;;17.63;100.00;100483.78;6211630;28;20106;-69
2023/08/14 04:18:42;;;;;;;3.67;2.92;;;;;;;17.64;100.00;100480.97;6214967;28;20050;-70
2023/08/14 04:21:43;;;;;;;3.55;2.70;;;;;;;17.71;100.00;100483.97;6215434;28;20136;-70
2023/08/14 04:24:47;;;;;;;8.87;2.77;;;;;;;17.77;100.00;100475.53;6200257;28;20042;-70
2023/08/14 04:27:47;;;;;;;4.50;3.08;;;;;;;17.84;100.00;100474.06;6199917;28;20058;-70
2023/08/14 04:30:49;;;;;;;3.75;2.72;;;;;;;17.96;100.00;100482.75;6219421;28;20061;-70
2023/08/14 04:33:52;;;;;;;3.63;2.63;;;;;;;18.04;100.00;100474.19;6210975;28;20137;-70
2023/08/14 04:36:52;;;;;;;3.50;2.50;;;;;;;18.11;100.00;100483.22;6203481;28;20402;-70
2023/08/14 04:39:55;;;;;;;2.70;2.42;;;;;;;18.13;100.00;100479.47;6201148;28;20068;-70
2023/08/14 04:42:59;;;;;;;3.45;2.22;;;;;;;18.20;100.00;100493.03;6200386;28;20057;-70
2023/08/14 04:46:11;;;;;;;4.90;2.78;;;;;;;18.27;98.34;100495.97;6196972;28;20521;-70
2023/08/14 04:49:14;;;;;;;;;;;;;;;18.33;98.03;100496.25;6194805;28;20053;-70
2023/08/14 04:52:15;;;;;;;3.88;2.72;;;;;;;18.42;99.97;100499.06;6216496;28;19960;-70
2023/08/14 04:55:18;;;;;;;3.90;2.90;;;;;;;18.51;100.00;100512.31;6272111;28;20049;-71
2023/08/14 04:58:19;;;;;;;2.97;2.63;;;;;;;18.60;100.00;100504.56;6217188;28;20054;-70
2023/08/14 05:01:22;;;;;;;3.50;2.73;;;;;;;18.68;97.03;100499.44;6203622;28;20081;-70
2023/08/14 05:04:23;;;;;;;2.72;2.33;;;;;;;18.81;96.26;100499.22;6208735;28;20174;-70
2023/08/14 05:07:24;;;;;;;6.57;2.43;;;;;;;18.90;96.75;100503.66;6240550;28;20549;-70
2023/08/14 05:10:24;;;;;;;3.30;2.35;;;;;;;19.03;96.85;100503.44;6200644;28;20049;-70
2023/08/14 05:13:27;;;;;;;2.53;2.30;;;;;;;19.06;96.74;100496.03;6215398;28;20561;-70
2023/08/14 05:16:28;;;;;;;2.72;2.20;;;;;;;19.23;94.93;100498.97;6230684;28;20056;-70
2023/08/14 05:19:31;;;;;;;7.90;2.70;;;;;;;19.30;94.29;100500.09;6212831;28;20054;-70
2023/08/14 05:22:32;;;;;;;4.18;2.80;;;;;;;19.37;94.47;100503.84;6209058;28;20068;-70
2023/08/14 05:25:33;;;;;;;4.47;3.00;;;;;;;19.46;94.90;100499.56;6214932;28;20498;-70
2023/08/14 05:28:33;;;;;;;3.93;2.67;;;;;;;19.49;92.39;100509.84;6229316;28;20412;-70
2023/08/14 05:31:36;;;;;;;3.77;2.40;;;;;;;19.64;91.88;100508.47;6217964;28;20477;-70
2023/08/14 05:34:37;;;;;;;3.83;2.38;;;;;;;19.77;90.34;100512.63;6211496;28;20099;-70
2023/08/14 05:37:39;;;;;;;2.80;2.30;;;;;;;19.87;90.08;100513.44;6209408;28;20423;-70
2023/08/14 05:40:40;;;;;;;2.58;2.30;;;;;;;19.98;89.76;100513.28;6194466;28;20134;-69
2023/08/14 05:43:41;;;;;;;3.57;2.40;;;;;;;20.08;89.70;100515.91;6253839;28;20047;-70
2023/08/14 05:46:42;;;;;;;4.28;2.50;;;;;;;20.17;91.90;100515.03;6313006;28;20433;-70
2023/08/14 05:49:43;;;;;;;;;;;;;;;20.37;88.70;100513.16;6217308;28;20042;-70
2023/08/14 05:52:44;;;;;;;2.88;2.00;;;;;;;20.52;88.07;100524.94;6219881;28;19935;-70
2023/08/14 05:55:45;;;;;;;3.40;1.93;;;;;;;20.69;85.55;100515.41;6209604;28;20191;-70
2023/08/14 05:58:48;;;;;;;6.17;2.57;;;;;;;20.90;84.73;100511.66;6224268;28;20152;-69
2023/08/14 06:01:49;;;;;;;3.45;2.35;;;;;;;21.03;85.05;100527.22;6218412;28;20479;-70
2023/08/14 06:04:50;;;;;;;3.57;2.10;;;;;;;21.13;83.97;100525.31;6256595;28;20054;-70
2023/08/14 06:07:55;;;;;;;4.30;2.13;;;;;;;21.26;84.41;100528.44;6327811;28;20050;-70
2023/08/14 06:10:58;;;;;;;5.68;2.58;;;;;;;21.34;83.28;100525.84;6260244;28;20134;-70
2023/08/14 06:14:04;;;;;;;5.55;2.15;;;;;;;21.52;82.48;100515.25;6185515;28;20409;-70
2023/08/14 06:17:04;;;;;;;4.05;2.50;;;;;;;21.70;83.36;100523.22;6216530;28;20069;-70
2023/08/14 06:20:06;;;;;;;8.03;2.10;;;;;;;21.88;80.79;100522.31;6235917;28;20049;-70
2023/08/14 06:23:07;;;;;;;9.35;2.50;;;;;;;22.04;81.34;100527.75;6269620;28;20133;-70
2023/08/14 06:26:08;;;;;;;2.23;1.80;;;;;;;22.29;76.50;100535.88;6212272;28;20057;-71
2023/08/14 06:29:08;;;;;;;2.73;2.03;;;;;;;22.45;76.76;100540.47;6301075;28;20050;-70
2023/08/14 06:32:10;;;;;;;2.67;2.10;;;;;;;22.65;74.83;100541.03;6231139;28;20395;-70
2023/08/14 06:35:10;;;;;;;3.63;2.03;;;;;;;22.72;73.27;100550.06;6309403;28;20426;-70
2023/08/14 06:38:11;;;;;;;2.70;1.77;;;;;;;22.94;71.21;100549.47;6250393;28;20104;-70
2023/08/14 06:41:12;;;;;;;5.33;2.00;;;;;;;23.17;73.68;100545.41;6252637;28;20082;-70
2023/08/14 06:44:13;;;;;;;2.77;2.00;;;;;;;23.29;72.72;100536.91;6251551;28;20082;-70
2023/08/14 06:47:13;;;;;;;3.47;2.20;;;;;;;23.51;74.25;100548.75;6260038;28;20051;-70
2023/08/14 06:50:14;;;;;;;6.20;1.73;;;;;;;23.64;73.00;100544.75;6324034;28;20054;-70
2023/08/14 06:53:15;;;;;;;3.90;2.00;;;;;;;23.79;71.13;100540.44;6247831;28;20054;-70
2023/08/14 06:56:17;;;;;;;2.58;1.70;;;;;;;24.10;72.57;100545.91;6227467;28;20478;-70
2023/08/14 06:59:18;;;;;;;2.47;2.20;;;;;;;24.25;69.96;100542.53;6243515;28;20044;-70
2023/08/14 07:02:21;;;;;;;4.53;2.33;;;;;;;24.48;69.46;100558.63;6280718;28;20136;-70
2023/08/14 07:05:22;;;;;;;1.95;1.65;;;;;;;24.65;69.45;100565.59;6272303;28;20055;-70
2023/08/14 07:08:23;;;;;;;3.13;2.10;;;;;;;24.88;68.87;100560.31;6237826;28;20053;-70
2023/08/14 07:11:24;;;;;;;6.18;2.33;;;;;;;24.99;68.16;100560.94;6299595;28;20479;-70
2023/08/14 07:14:25;;;;;;;4.27;2.20;;;;;;;25.25;65.86;100568.66;6266094;28;20055;-70
2023/08/14 07:17:29;;;;;;;4.40;2.00;;;;;;;25.33;64.89;100569.44;6299710;28;20051;-70
2023/08/14 07:20:30;;;;;;;2.20;1.85;;;;;;;25.47;62.33;100564.31;6331745;28;20082;-70
2023/08/14 07:23:32;;;;;;;5.70;2.00;;;;;;;25.59;63.74;100562.88;6228300;28;20054;-70
2023/08/14 07:26:32;;;;;;;2.33;2.00;;;;;;;25.60;59.95;100567.22;6244526;28;20406;-70
2023/08/14 07:29:35;;;;;;;2.43;2.07;;;;;;;25.86;62.46;100563.31;6262808;28;20072;-70
2023/08/14 07:32:36;;;;;;;2.97;1.80;;;;;;;26.03;61.91;100561.38;6298545;28;20137;-70
2023/08/14 07:35:37;;;;;;;3.10;1.90;;;;;;;26.27;62.35;100568.28;6311068;28;20043;-70
2023/08/14 07:38:41;;;;;;;5.32;1.65;;;;;;;26.48;62.87;100564.88;6225420;28;20053;-70
2023/08/14 07:41:44;;;;;;;3.30;2.05;;;;;;;26.64;59.16;100570.06;6235308;28;20049;-70
2023/08/14 07:44:45;;;;;;;7.35;2.05;;;;;;;26.90;58.45;100571.41;6230109;28;20050;-71
2023/08/14 07:47:46;;;;;;;2.55;2.22;;;;;;;27.12;61.71;100575.78;6211822;28;20060;-70
2023/08/14 07:50:52;;;;;;;8.68;2.10;;;;;;;27.29;58.70;100575.59;6211924;28;20042;-70
2023/08/14 07:53:53;;;;;;;5.05;2.10;;;;;;;27.35;58.63;100572.16;6261894;28;20134;-70
2023/08/14 07:56:54;;;;;;;8.45;2.17;;;;;;;27.45;59.11;100567.28;6219853;28;20099;-70
2023/08/14 07:59:54;;;;;;;4.45;2.00;;;;;;;27.58;55.78;100563.09;6292234;28;20053;-70
2023/08/14 08:02:55;;;;;;;2.35;1.80;;;;;;;27.73;54.99;100556.59;6298975;28;20409;-70
2023/08/14 08:05:56;;;;;;;2.15;1.77;;;;;;;27.86;56.97;100557.72;6250823;28;20188;-70
2023/08/14 08:08:57;;;;;;;3.22;1.58;;;;;;;27.78;52.14;100555.19;6203507;28;20513;-71
2023/08/14 08:11:58;;;;;;;2.30;1.60;;;;;;;27.99;56.06;100559.72;6200184;28;20057;-71
2023/08/14 08:14:59;;;;;;;4.18;1.63;;;;;;;28.01;50.95;100557.69;6275232;28;20055;-71
2023/08/14 08:17:59;;;;;;;1.73;1.50;;;;;;;28.09;51.96;100560.22;6248940;28;20051;-71
2023/08/14 08:21:00;;;;;;;3.40;1.80;;;;;;;28.41;52.27;100566.78;6275031;28;20053;-70
2023/08/14 08:24:01;;;;;;;3.88;2.00;;;;;;;28.57;53.29;100559.47;6309183;28;20607;-71
2023/08/14 08:27:01;;;;;;;2.13;1.60;;;;;;;28.68;52.30;100561.56;6274487;28;20133;-71
2023/08/14 08:30:03;;;;;;;5.25;1.90;;;;;;;28.66;51.99;100552.88;6238285;28;20058;-71
2023/08/14 08:33:04;;;;;;;2.05;1.60;;;;;;;28.80;49.69;100561.84;6267123;28;20062;-71
2023/08/14 08:36:04;;;;;;;3.15;1.70;;;;;;;28.95;50.33;100557.13;6280464;28;20056;-70
2023/08/14 08:39:05;;;;;;;2.70;1.70;;;;;;;29.21;50.64;100561.75;6277430;28;20041;-71
2023/08/14 08:42:09;;;;;;;2.30;1.60;;;;;;;29.44;49.30;100568.63;6274954;28;20478;-71
2023/08/14 08:45:12;;;;;;;2.30;1.50;;;;;;;29.40;49.29;100562.81;6241543;28;20045;-71
2023/08/14 08:48:16;;;;;;;1.73;1.60;;;;;;;29.41;47.00;100566.38;6233020;28;20050;-70
2023/08/14 08:51:17;;;;;;;4.47;1.55;;;;;;;29.72;48.53;100573.84;6218760;28;20437;-70
2023/08/14 08:54:18;;;;;;;;;;;;;;;29.69;53.27;100564.31;6229160;28;20050;-71
2023/08/14 08:57:20;;;;;;;2.53;1.75;;;;;;;29.90;46.02;100559.78;6245232;28;19921;-71
2023/08/14 09:00:22;;;;;;;2.05;1.50;;;;;;;30.05;47.29;100554.16;6217829;28;20081;-71
2023/08/14 09:03:22;;;;;;;1.52;1.33;;;;;;;29.96;48.65;100558.09;6203409;28;20069;-71
2023/08/14 09:06:23;;;;;;;3.65;1.92;;;;;;;30.07;47.86;100562.84;6230829;28;20058;-71
2023/08/14 09:09:24;;;;;;;3.33;1.50;;;;;;;29.92;45.24;100558.53;6214748;28;20074;-70
2023/08/14 09:12:25;;;;;;;1.77;1.67;;;;;;;30.12;46.54;100558.50;6239145;28;20496;-70
2023/08/14 09:15:25;;;;;;;2.35;1.60;;;;;;;30.40;47.34;100556.59;6246666;28;20102;-71
2023/08/14 09:18:26;;;;;;;1.63;1.33;;;;;;;30.45;47.39;100565.66;6225250;28;20049;-70
2023/08/14 09:21:28;;;;;;;2.97;1.40;;;;;;;30.32;45.47;100561.16;6226948;28;20057;-71
2023/08/14 09:24:33;;;;;;;3.60;1.60;;;;;;;30.11;44.63;100547.94;6237850;28;20057;-71
2023/08/14 09:27:34;;;;;;;1.52;1.40;;;;;;;30.54;45.64;100550.13;6237168;28;20574;-71
2023/08/14 09:30:38;;;;;;;8.60;3.65;;;;;;;30.75;46.43;100540.91;6241179;28;20054;-71
2023/08/14 09:33:41;;;;;;;2.00;1.70;;;;;;;30.87;43.75;100546.47;6226199;28;20050;-71
2023/08/14 09:36:45;;;;;;;2.70;1.67;;;;;;;31.01;45.00;100539.13;6227041;28;20514;-71
2023/08/14 09:39:47;;;;;;;4.78;2.33;;;;;;;31.27;44.63;100543.53;6244818;28;20046;-73
2023/08/14 09:42:51;;;;;;;3.60;2.03;;;;;;;31.26;42.91;100541.91;6266539;28;20055;-73
2023/08/14 09:45:56;;;;;;;3.10;1.60;;;;;;;31.39;45.08;100541.78;6217364;28;20106;-73
2023/08/14 09:49:01;;;;;;;1.45;1.20;;;;;;;31.44;44.66;100535.75;6222001;28;20058;-73
2023/08/14 09:52:01;;;;;;;1.85;1.40;;;;;;;31.77;44.17;100537.34;6266242;28;20050;-74
2023/08/14 09:55:05;;;;;;;4.72;2.03;;;;;;;31.82;45.19;100543.75;6219833;28;20103;-73
2023/08/14 09:58:05;;;;;;;2.33;1.50;;;;;;;31.87;43.35;100532.28;6240711;28;20088;-74
2023/08/14 10:01:07;;;;;;;1.60;1.30;;;;;;;31.86;40.50;100531.47;6227490;28;20046;-74
2023/08/14 10:04:11;;;;;;;1.90;1.40;;;;;;;31.81;42.52;100528.59;6203745;28;20046;-73
2023/08/14 10:07:14;;;;;;;1.55;1.33;;;;;;;31.95;44.02;100525.78;6284472;28;20058;-74
2023/08/14 10:10:15;;;;;;;1.88;1.20;;;;;;;32.18;43.76;100530.53;6309302;28;20050;-74
2023/08/14 10:13:18;;;;;;;1.67;1.45;;;;;;;31.98;41.08;100525.31;6292534;28;20078;-73
2023/08/14 10:16:24;;;;;;;2.30;1.60;;;;;;;32.30;40.68;100529.56;6233726;28;20483;-74
2023/08/14 10:19:32;;;;;;;2.00;1.60;;;;;;;32.63;41.53;100528.34;6334391;27;20060;-74
2023/08/14 10:22:35;;;;;;;2.42;1.60;;;;;;;32.38;40.96;100530.31;6312604;28;20055;-74
2023/08/14 10:25:37;;;;;;;2.08;1.33;;;;;;;32.40;37.84;100525.50;6330010;28;20060;-74
2023/08/14 10:28:38;;;;;;;3.58;1.80;;;;;;;32.50;42.96;100521.22;6217707;28;20085;-74
2023/08/14 10:31:39;;;;;;;;;;;;;;;32.82;41.26;100520.22;6219965;28;20572;-73
2023/08/14 10:34:42;;;;;;;2.28;1.55;;;;;;;32.69;38.72;100508.53;6219654;28;20462;-73
2023/08/14 10:37:47;;;;;;;3.10;1.40;;;;;;;32.64;40.38;100515.69;6277757;28;20589;-74
2023/08/14 10:40:52;;;;;;;2.45;1.52;;;;;;;32.52;39.36;100502.91;6336717;28;20127;-73
2023/08/14 10:43:56;;;;;;;3.00;1.70;;;;;;;32.52;43.58;100508.31;6299282;28;20074;-74
2023/08/14 10:47:07;;;;;;;1.92;1.60;;;;;;;32.64;41.51;100503.00;6308323;28;20044;-73
2023/08/14 10:50:23;;;;;;;2.72;1.80;;;;;;;32.64;39.32;100503.00;6244286;28;20129;-74
2023/08/14 10:53:24;;;;;;;3.83;2.65;;;;;;;32.97;41.68;100496.31;6301018;28;20050;-74
2023/08/14 10:56:38;;;;;;;;;;;;;;;32.97;40.65;100501.72;6204208;28;20046;-74
2023/08/14 10:59:43;;;;;;;2.08;1.48;;;;;;;33.24;42.58;100504.84;6243755;28;19929;-73
2023/08/14 11:02:50;;;;;;;1.98;1.58;;;;;;;33.31;40.66;100499.31;6229497;28;20058;-74
2023/08/14 11:05:51;;;;;;;2.78;1.60;;;;;;;33.50;43.86;100486.53;6217783;28;20118;-73
2023/08/14 11:09:20;;;;;;;1.48;1.30;;;;;;;33.79;42.07;100494.78;6219650;28;20474;-74
2023/08/14 11:12:21;;;;;;;1.75;1.40;;;;;;;33.61;37.86;100488.44;6241977;28;20050;-74
2023/08/14 11:15:21;;;;;;;4.03;1.70;;;;;;;33.78;37.78;100482.31;6216029;28;20058;-73
2023/08/14 11:18:24;;;;;;;2.03;1.50;;;;;;;33.80;38.11;100475.59;6227099;28;20048;-73
2023/08/14 11:21:28;;;;;;;1.33;1.20;;;;;;;33.74;41.10;100476.56;6218781;28;20088;-74
2023/08/14 11:24:29;;;;;;;1.60;1.40;;;;;;;33.87;41.25;100481.72;6226488;28;20043;-73
2023/08/14 11:27:30;;;;;;;2.03;1.35;;;;;;;34.05;39.91;100475.31;6221614;28;20050;-74
2023/08/14 11:30:34;;;;;;;2.38;1.40;;;;;;;33.79;38.54;100467.72;6216163;28;20610;-73
2023/08/14 11:33:35;;;;;;;3.47;1.55;;;;;;;33.93;39.41;100466.41;6215811;28;20050;-74
2023/08/14 11:36:53;;;;;;;4.38;1.40;;;;;;;33.11;41.65;100472.59;6310225;28;20130;-73
2023/08/14 11:39:54;;;;;;;1.80;1.48;;;;;;;33.76;41.70;100460.91;6225762;28;20048;-73
2023/08/14 11:42:56;;;;;;;5.15;1.40;;;;;;;33.92;41.02;100465.59;6213344;28;20417;-74
2023/08/14 11:45:59;;;;;;;1.92;1.50;;;;;;;33.48;36.16;100464.28;6217252;28;20045;-74
2023/08/14 11:49:02;;;;;;;6.22;1.65;;;;;;;33.77;38.06;100467.13;6279078;28;20061;-74
2023/08/14 11:52:03;;;;;;;2.75;1.33;;;;;;;33.93;38.59;100469.13;6317626;28;20441;-73
2023/08/14 11:55:05;;;;;;;2.20;1.42;;;;;;;34.17;38.31;100466.41;6341721;28;20105;-74
2023/08/14 11:58:06;;;;;;;1.77;1.58;;;;;;;34.10;36.11;100455.69;6286471;28;20471;-74
2023/08/14 12:01:07;;;;;;;3.70;1.52;;;;;;;34.03;37.57;100455.78;6269741;28;20053;-74
2023/08/14 12:04:12;;;;;;;12.95;5.93;;;;;;;33.69;40.36;100452.09;6254359;28;20051;-74
2023/08/14 12:07:18;;;;;;;5.47;3.13;;;;;;;33.87;40.00;100451.97;6211712;28;20481;-74
2023/08/14 12:10:18;;;;;;;4.97;2.67;;;;;;;34.05;38.79;100445.56;6219175;28;20046;-74
2023/08/14 12:13:20;;;;;;;1.83;1.30;;;;;;;34.04;39.24;100443.91;6225782;28;20124;-74
2023/08/14 12:16:22;;;;;;;2.67;1.70;;;;;;;34.21;38.68;100445.91;6220243;28;20133;-74
2023/08/14 12:19:22;;;;;;;3.47;1.60;;;;;;;34.38;39.90;100448.66;6210977;28;20065;-74
2023/08/14 12:22:25;;;;;;;4.93;1.38;;;;;;;33.59;39.14;100430.22;6268569;28;20435;-74
2023/08/14 12:25:28;;;;;;;2.88;1.77;;;;;;;33.81;41.34;100433.97;6345704;28;20391;-74
2023/08/14 12:28:29;;;;;;;3.70;1.60;;;;;;;33.80;38.15;100428.78;6223395;28;20058;-73
2023/08/14 12:31:30;;;;;;;2.13;1.50;;;;;;;33.89;40.87;100433.59;6229057;28;20719;-74
2023/08/14 12:34:31;;;;;;;1.95;1.48;;;;;;;34.05;37.74;100433.91;6256951;28;20083;-74
2023/08/14 12:37:33;;;;;;;1.85;1.40;;;;;;;34.06;37.42;100427.44;6275606;28;20390;-74
2023/08/14 12:40:34;;;;;;;1.80;1.35;;;;;;;33.96;37.23;100425.34;6260541;28;20107;-73
2023/08/14 12:43:35;;;;;;;2.15;1.63;;;;;;;34.05;37.93;100423.88;6346689;28;20090;-74
2023/08/14 12:46:35;;;;;;;3.00;1.58;;;;;;;33.18;38.59;100413.06;6347996;28;20052;-73
2023/08/14 12:49:37;;;;;;;2.28;1.42;;;;;;;33.28;41.25;100419.50;6266473;28;20072;-73
2023/08/14 12:52:37;;;;;;;3.42;1.52;;;;;;;33.45;38.58;100416.09;6302655;28;20053;-73
2023/08/14 12:55:39;;;;;;;1.63;1.38;;;;;;;33.21;38.57;100416.09;6224695;28;20501;-73
2023/08/14 12:58:39;;;;;;;3.47;1.50;;;;;;;33.69;39.78;100408.81;6247351;28;20096;-74
2023/08/14 13:01:40;;;;;;;3.08;1.40;;;;;;;33.55;38.85;100404.69;6345767;28;20043;-74
2023/08/14 13:04:44;;;;;;;1.45;1.30;;;;;;;33.29;39.25;100406.81;6244186;28;20049;-74
2023/08/14 13:07:44;;;;;;;1.40;1.30;;;;;;;33.34;38.81;100401.53;6262693;28;20062;-74
2023/08/14 13:10:45;;;;;;;1.75;1.58;;;;;;;33.67;39.17;100410.94;6272005;28;20067;-74
2023/08/14 13:13:48;;;;;;;1.90;1.60;;;;;;;33.02;39.53;100403.72;6264660;28;20405;-73
2023/08/14 13:16:49;;;;;;;2.85;1.58;;;;;;;32.83;38.84;100397.59;6271929;28;20068;-73
2023/08/14 13:19:51;;;;;;;1.75;1.38;;;;;;;33.02;40.53;100407.22;6209314;28;20465;-74
2023/08/14 13:22:53;;;;;;;2.42;1.58;;;;;;;32.56;39.37;100399.88;6224836;28;20535;-74
2023/08/14 13:25:54;;;;;;;1.77;1.35;;;;;;;32.32;39.30;100400.56;6223762;28;20078;-73
2023/08/14 13:28:55;;;;;;;1.50;1.40;;;;;;;32.76;40.65;100402.25;6206695;28;20102;-73
2023/08/14 13:31:56;;;;;;;1.83;1.50;;;;;;;33.15;40.42;100399.97;6220349;28;20038;-73
2023/08/14 13:35:01;;;;;;;1.60;1.50;;;;;;;32.88;38.68;100395.81;6219164;28;20102;-75
2023/08/14 13:38:02;;;;;;;2.15;1.50;;;;;;;33.01;38.77;100396.66;6208769;28;20053;-74
2023/08/14 13:41:05;;;;;;;2.20;1.48;;;;;;;33.19;40.01;100393.88;6263702;28;20042;-74
2023/08/14 13:44:06;;;;;;;4.10;1.40;;;;;;;33.36;38.40;100385.91;6225179;28;20046;-74
2023/08/14 13:47:09;;;;;;;1.80;1.40;;;;;;;33.04;38.81;100388.91;6231629;28;20058;-74
2023/08/14 13:50:10;;;;;;;2.58;1.50;;;;;;;33.25;40.41;100390.22;6321435;28;20119;-74
2023/08/14 13:53:13;;;;;;;3.28;1.52;;;;;;;32.97;40.11;100388.22;6311793;28;20048;-74
2023/08/14 13:56:13;;;;;;;2.10;1.42;;;;;;;32.93;42.21;100384.31;6243146;28;20100;-73
2023/08/14 13:59:16;;;;;;;3.25;1.50;;;;;;;33.05;39.70;100381.59;6239673;28;20082;-74
2023/08/14 14:02:19;;;;;;;6.38;1.75;;;;;;;32.42;39.67;100386.53;6306815;28;20399;-73
2023/08/14 14:05:20;;;;;;;1.60;1.40;;;;;;;32.46;38.69;100378.78;6231561;28;20494;-74
2023/08/14 14:08:21;;;;;;;;;;;;;;;32.51;39.61;100382.44;6326033;28;20097;-74